createdAt,value
2022-08-14T00:03:40.478Z,87.40
2022-08-14T00:08:45.793Z,87.70
2022-08-14T00:13:52.444Z,88.40
2022-08-14T00:19:06.565Z,88.20
2022-08-14T00:24:28.106Z,88.80
2022-08-14T00:29:40.564Z,89.00
2022-08-14T00:34:46.741Z,89.40
2022-08-14T00:39:52.068Z,90.00
2022-08-14T00:44:56.121Z,90.00
2022-08-14T00:49:59.349Z,90.30
2022-08-14T00:55:06.688Z,90.20
2022-08-14T01:00:34.294Z,90.50
2022-08-14T01:05:41.742Z,90.80
2022-08-14T01:10:58.139Z,91.30
2022-08-14T01:16:05.746Z,91.20
2022-08-14T01:21:15.913Z,91.10
2022-08-14T01:26:35.254Z,91.00
2022-08-14T01:31:44.260Z,91.00
2022-08-14T01:36:54.140Z,90.80
2022-08-14T01:42:01.019Z,90.70
2022-08-14T01:47:16.519Z,90.70
2022-08-14T01:52:33.977Z,90.60
2022-08-14T01:58:01.663Z,90.50
2022-08-14T02:03:13.352Z,90.50
2022-08-14T02:08:22.516Z,90.80
2022-08-14T02:13:40.252Z,91.00
2022-08-14T02:18:47.246Z,91.10
2022-08-14T02:23:54.347Z,91.20
2022-08-14T02:29:03.365Z,91.30
2022-08-14T02:34:22.509Z,91.50
2022-08-14T02:39:31.517Z,91.60
2022-08-14T02:44:39.652Z,91.90
2022-08-14T02:49:43.281Z,92.00
2022-08-14T02:54:46.725Z,92.10
2022-08-14T02:59:52.745Z,92.30
2022-08-14T03:04:56.036Z,92.50
2022-08-14T03:10:27.762Z,92.60
2022-08-14T03:15:23.740Z,92.80
2022-08-14T03:20:29.271Z,92.90
2022-08-14T03:25:33.378Z,93.10
2022-08-14T03:30:39.339Z,93.20
2022-08-14T03:36:05.645Z,93.30
2022-08-14T03:41:14.347Z,93.40
2022-08-14T03:46:51.750Z,93.60
2022-08-14T03:51:44.132Z,93.90
2022-08-14T03:56:50.150Z,93.90
2022-08-14T04:02:01.171Z,94.10
2022-08-14T04:07:05.472Z,94.30
2022-08-14T04:12:13.341Z,94.50
2022-08-14T04:17:18.858Z,94.90
2022-08-14T04:22:23.716Z,95.30
2022-08-14T04:27:27.698Z,95.00
2022-08-14T04:32:57.335Z,95.10
2022-08-14T04:38:37.184Z,95.00
2022-08-14T04:43:39.284Z,95.40
2022-08-14T04:48:51.416Z,95.50
2022-08-14T04:53:59.535Z,95.70
2022-08-14T04:59:09.472Z,95.50
2022-08-14T05:04:16.257Z,95.80
2022-08-14T05:09:19.678Z,95.60
2022-08-14T05:14:45.893Z,95.70
2022-08-14T05:21:54.135Z,95.90
2022-08-14T05:25:13.624Z,95.60
2022-08-14T05:30:18.375Z,95.70
2022-08-14T05:35:22.812Z,95.80
2022-08-14T05:40:26.958Z,95.80
2022-08-14T05:45:30.318Z,95.20
2022-08-14T05:50:38.085Z,94.80
2022-08-14T05:55:42.728Z,94.90
2022-08-14T06:00:49.069Z,95.10
2022-08-14T06:05:56.403Z,94.60
2022-08-14T06:11:03.592Z,94.30
2022-08-14T06:16:07.442Z,94.10
2022-08-14T06:21:15.783Z,93.70
2022-08-14T06:26:22.385Z,93.30
2022-08-14T06:31:25.826Z,93.20
2022-08-14T06:36:30.605Z,92.70
2022-08-14T06:41:56.733Z,92.60
2022-08-14T06:46:57.159Z,92.30
2022-08-14T06:52:01.837Z,92.20
2022-08-14T06:57:05.181Z,92.40
2022-08-14T07:02:28.925Z,92.00
2022-08-14T07:07:39.259Z,91.30
2022-08-14T07:13:00.940Z,91.30
2022-08-14T07:18:08.815Z,91.30
2022-08-14T07:23:20.591Z,90.70
2022-08-14T07:28:26.643Z,90.50
2022-08-14T07:33:31.888Z,90.40
2022-08-14T07:38:38.233Z,90.10
2022-08-14T07:43:42.744Z,90.40
2022-08-14T07:48:48.482Z,90.50
2022-08-14T07:53:56.844Z,90.30
2022-08-14T07:59:00.624Z,90.10
2022-08-14T08:04:11.034Z,90.30
2022-08-14T08:09:31.706Z,89.40
2022-08-14T08:14:56.765Z,89.00
2022-08-14T08:19:59.588Z,88.50
2022-08-14T08:25:06.450Z,87.70
2022-08-14T08:30:16.795Z,87.50
2022-08-14T08:35:23.531Z,87.70
2022-08-14T08:40:31.370Z,87.30
2022-08-14T08:45:36.016Z,86.90
2022-08-14T08:55:46.099Z,85.70
2022-08-14T09:00:54.423Z,86.80
2022-08-14T09:06:01.234Z,85.40
2022-08-14T09:11:19.379Z,85.30
2022-08-14T09:16:26.491Z,84.90
2022-08-14T09:21:31.390Z,84.10
2022-08-14T09:26:37.676Z,83.00
2022-08-14T09:31:53.467Z,82.80
2022-08-14T09:37:18.823Z,83.40
2022-08-14T09:42:36.234Z,82.30
2022-08-14T09:47:52.160Z,81.80
2022-08-14T09:52:58.876Z,81.10
2022-08-14T09:58:20.049Z,80.80
2022-08-14T10:03:30.302Z,80.10
2022-08-14T10:08:45.322Z,80.80
2022-08-14T10:13:59.164Z,81.10
2022-08-14T10:19:12.085Z,83.30
2022-08-14T10:24:36.121Z,82.60
2022-08-14T10:29:45.742Z,82.20
2022-08-14T10:34:52.541Z,81.40
2022-08-14T10:40:05.721Z,81.80
2022-08-14T10:45:24.411Z,80.40
2022-08-14T10:50:34.004Z,81.50
2022-08-14T10:55:45.608Z,82.50
2022-08-14T11:00:58.920Z,83.90
2022-08-14T11:06:20.120Z,84.50
2022-08-14T11:11:28.574Z,83.10
2022-08-14T11:16:41.471Z,82.50
2022-08-14T11:21:58.197Z,81.40
2022-08-14T11:27:02.570Z,81.00
2022-08-14T11:32:09.587Z,82.80
2022-08-14T11:37:22.863Z,82.30
2022-08-14T11:42:56.328Z,81.90
2022-08-14T11:48:12.860Z,80.70
2022-08-14T11:53:22.998Z,77.20
2022-08-14T11:58:28.588Z,77.80
2022-08-14T12:03:51.368Z,77.30
2022-08-14T12:08:59.787Z,77.60
2022-08-14T12:14:13.203Z,76.40
2022-08-14T12:19:45.928Z,77.80
2022-08-14T12:24:54.896Z,74.80
2022-08-14T12:29:59.962Z,74.60
2022-08-14T12:35:05.325Z,73.50
2022-08-14T12:40:19.488Z,71.80
2022-08-14T12:45:33.264Z,73.00
2022-08-14T12:50:39.816Z,73.60
2022-08-14T12:56:21.490Z,72.60
2022-08-14T13:01:16.907Z,70.90
2022-08-14T13:06:23.214Z,71.10
2022-08-14T13:11:31.248Z,70.90
2022-08-14T13:16:38.871Z,72.00
2022-08-14T13:22:05.314Z,72.70
2022-08-14T13:27:12.545Z,72.90
2022-08-14T13:32:16.226Z,73.40
2022-08-14T13:37:21.395Z,72.60
2022-08-14T13:42:35.380Z,73.40
2022-08-14T13:47:42.373Z,73.70
2022-08-14T13:52:55.051Z,74.00
2022-08-14T13:58:04.479Z,74.20
2022-08-14T14:03:09.177Z,74.50
2022-08-14T14:08:18.960Z,73.30
2022-08-14T14:13:44.619Z,73.30
2022-08-14T14:18:52.009Z,72.60
2022-08-14T14:23:58.058Z,73.70
2022-08-14T14:29:03.155Z,74.50
2022-08-14T14:34:20.162Z,72.90
2022-08-14T14:39:35.196Z,73.70
2022-08-14T14:44:41.665Z,73.20
2022-08-14T14:49:54.944Z,73.90
2022-08-14T14:55:00.152Z,74.10
2022-08-14T15:00:04.015Z,74.00
2022-08-14T15:05:09.366Z,74.00
2022-08-14T15:10:27.862Z,73.90
2022-08-14T15:15:36.915Z,73.40
2022-08-14T15:20:40.927Z,73.10
2022-08-14T15:25:52.946Z,73.60
2022-08-14T15:30:59.100Z,73.80
2022-08-14T15:36:04.419Z,74.40
2022-08-14T15:41:41.667Z,73.60
2022-08-14T15:46:45.623Z,73.80
2022-08-14T15:51:51.045Z,74.30
2022-08-14T15:57:00.718Z,74.40
2022-08-14T16:02:04.213Z,74.40
2022-08-14T16:07:08.987Z,74.30
2022-08-14T16:12:13.674Z,74.60
2022-08-14T16:17:20.181Z,74.20
2022-08-14T16:22:57.604Z,74.50
2022-08-14T16:27:48.500Z,75.30
2022-08-14T16:32:56.651Z,74.80
2022-08-14T16:38:44.570Z,75.50
2022-08-14T16:43:26.057Z,75.60
2022-08-14T16:48:54.844Z,76.40
2022-08-14T16:53:54.630Z,77.00
2022-08-14T16:59:12.058Z,77.50
2022-08-14T17:04:25.278Z,77.80
2022-08-14T17:09:48.599Z,77.90
2022-08-14T17:14:57.501Z,77.90
2022-08-14T17:20:02.210Z,78.90
2022-08-14T17:25:12.220Z,78.00
2022-08-14T17:30:31.965Z,77.80
2022-08-14T17:35:57.629Z,77.70
2022-08-14T17:41:18.571Z,78.70
2022-08-14T17:46:37.588Z,78.60
2022-08-14T17:52:03.743Z,78.70
2022-08-14T17:57:13.961Z,79.20
2022-08-14T18:02:22.552Z,79.40
2022-08-14T18:07:59.374Z,79.30
2022-08-14T18:12:59.431Z,79.80
2022-08-14T18:18:06.868Z,80.90
2022-08-14T18:23:13.761Z,82.00
2022-08-14T18:28:47.857Z,83.80
2022-08-14T18:33:52.772Z,84.70
2022-08-14T18:39:22.891Z,85.00
2022-08-14T18:45:12.598Z,84.80
2022-08-14T18:50:27.507Z,84.80
2022-08-14T18:55:54.063Z,84.60
2022-08-14T19:01:00.211Z,84.60
2022-08-14T19:06:07.167Z,85.00
2022-08-14T19:11:45.136Z,84.80
2022-08-14T19:16:54.331Z,85.10
2022-08-14T19:21:59.012Z,85.60
2022-08-14T19:27:19.125Z,86.60
2022-08-14T19:32:40.755Z,86.80
2022-08-14T19:37:52.182Z,87.50
2022-08-14T19:42:58.349Z,87.60
2022-08-14T19:48:02.892Z,88.40
2022-08-14T19:53:11.416Z,88.40
2022-08-14T19:58:15.159Z,88.60
2022-08-14T20:03:23.251Z,89.40
2022-08-14T20:09:05.987Z,89.30
2022-08-14T20:14:10.254Z,89.90
2022-08-14T20:19:16.339Z,90.00
2022-08-14T20:24:41.084Z,90.10
2022-08-14T20:29:45.555Z,90.50
2022-08-14T20:34:51.577Z,90.70
2022-08-14T20:39:56.415Z,90.90
